createdAt,value
2019-02-08T00:01:29.361Z,67.10
2019-02-08T00:04:33.122Z,67.10
2019-02-08T00:07:36.870Z,67.00
2019-02-08T00:10:40.601Z,66.90
2019-02-08T00:13:44.338Z,66.80
2019-02-08T00:16:48.088Z,66.80
2019-02-08T00:19:51.809Z,66.80
2019-02-08T00:22:55.507Z,66.80
2019-02-08T00:26:02.514Z,66.80
2019-02-08T00:29:06.718Z,66.70
2019-02-08T00:32:10.466Z,66.60
2019-02-08T00:35:14.237Z,66.50
2019-02-08T00:38:17.971Z,66.40
2019-02-08T00:41:21.734Z,67.40
2019-02-08T00:44:25.400Z,66.30
2019-02-08T00:47:29.211Z,66.40
2019-02-08T00:50:32.975Z,66.50
2019-02-08T00:53:36.714Z,66.60
2019-02-08T00:56:40.453Z,66.70
2019-02-08T00:59:44.511Z,66.60
2019-02-08T01:02:49.230Z,66.70
2019-02-08T01:05:52.993Z,66.70
2019-02-08T01:08:59.031Z,66.80
2019-02-08T01:12:03.247Z,66.70
2019-02-08T01:15:08.502Z,66.50
2019-02-08T01:18:12.964Z,66.70
2019-02-08T01:21:17.139Z,66.60
2019-02-08T01:24:21.333Z,66.40
2019-02-08T01:27:25.428Z,66.50
2019-02-08T01:30:30.347Z,66.40
2019-02-08T01:33:34.465Z,66.40
2019-02-08T01:36:38.583Z,66.40
2019-02-08T01:39:42.746Z,66.20
2019-02-08T01:42:46.887Z,66.20
2019-02-08T01:45:51.049Z,66.50
2019-02-08T01:48:55.292Z,66.00
2019-02-08T01:51:59.384Z,66.20
2019-02-08T01:55:03.528Z,66.30
2019-02-08T01:58:07.704Z,66.30
2019-02-08T02:01:11.871Z,66.40
2019-02-08T02:04:15.964Z,66.20
2019-02-08T02:07:20.080Z,66.20
2019-02-08T02:10:35.234Z,66.10
2019-02-08T02:13:39.351Z,66.00
2019-02-08T02:16:43.448Z,66.10
2019-02-08T02:19:47.692Z,66.40
2019-02-08T02:22:51.776Z,66.30
2019-02-08T02:25:55.964Z,66.20
2019-02-08T02:29:00.063Z,66.40
2019-02-08T02:32:04.186Z,66.80
2019-02-08T02:35:08.943Z,66.70
2019-02-08T02:38:13.153Z,66.90
2019-02-08T02:41:17.318Z,67.40
2019-02-08T02:44:21.527Z,67.50
2019-02-08T02:47:25.616Z,67.50
2019-02-08T02:50:29.739Z,67.50
2019-02-08T02:53:33.824Z,67.30
2019-02-08T02:56:37.952Z,67.30
2019-02-08T02:59:42.122Z,67.30
2019-02-08T03:02:46.385Z,67.50
2019-02-08T03:05:50.572Z,67.50
2019-02-08T03:08:54.687Z,67.50
2019-02-08T03:11:58.856Z,67.60
2019-02-08T03:15:02.976Z,67.70
2019-02-08T03:18:07.098Z,67.60
2019-02-08T03:21:11.213Z,67.70
2019-02-08T03:24:15.296Z,67.60
2019-02-08T03:27:19.436Z,67.60
2019-02-08T03:30:31.982Z,67.80
2019-02-08T03:33:36.156Z,67.80
2019-02-08T03:36:40.340Z,68.10
2019-02-08T03:39:44.535Z,68.30
2019-02-08T03:42:48.628Z,68.60
2019-02-08T03:45:53.915Z,68.70
2019-02-08T03:48:58.101Z,69.70
2019-02-08T03:52:02.217Z,69.20
2019-02-08T03:55:06.335Z,69.70
2019-02-08T03:58:11.813Z,70.60
2019-02-08T04:01:15.997Z,70.10
2019-02-08T04:04:20.252Z,70.20
2019-02-08T04:07:24.419Z,70.40
2019-02-08T04:10:28.610Z,70.50
2019-02-08T04:13:32.777Z,70.90
2019-02-08T04:16:36.899Z,71.00
2019-02-08T04:19:40.994Z,71.30
2019-02-08T04:22:45.107Z,71.40
2019-02-08T04:25:49.139Z,71.50
2019-02-08T04:28:53.339Z,71.70
2019-02-08T04:31:57.677Z,71.90
2019-02-08T04:35:01.884Z,72.10
2019-02-08T04:38:05.991Z,72.20
2019-02-08T04:41:10.108Z,72.10
2019-02-08T04:44:14.231Z,72.10
2019-02-08T04:47:18.442Z,72.30
2019-02-08T04:50:23.191Z,72.30
2019-02-08T04:53:27.325Z,72.30
2019-02-08T04:56:31.496Z,72.70
2019-02-08T04:59:35.632Z,72.60
2019-02-08T05:02:39.718Z,72.80
2019-02-08T05:05:43.836Z,72.70
2019-02-08T05:08:47.951Z,72.80
2019-02-08T05:11:52.155Z,73.00
2019-02-08T05:14:56.302Z,73.00
2019-02-08T05:18:00.443Z,73.10
2019-02-08T05:21:04.604Z,73.10
2019-02-08T05:24:08.809Z,73.10
2019-02-08T05:27:12.955Z,73.20
2019-02-08T05:30:22.556Z,73.20
2019-02-08T05:33:26.875Z,73.10
2019-02-08T05:36:31.069Z,73.20
2019-02-08T05:39:35.152Z,72.50
2019-02-08T05:42:39.264Z,73.10
2019-02-08T05:45:43.453Z,73.20
2019-02-08T05:48:47.688Z,73.10
2019-02-08T05:51:51.780Z,73.10
2019-02-08T05:54:55.921Z,73.00
2019-02-08T05:58:00.121Z,73.10
2019-02-08T06:01:04.330Z,73.10
2019-02-08T06:04:08.506Z,73.10
2019-02-08T06:07:12.703Z,73.20
2019-02-08T06:10:16.803Z,73.30
2019-02-08T06:13:20.929Z,73.30
2019-02-08T06:16:25.025Z,73.20
2019-02-08T06:19:29.226Z,73.10
2019-02-08T06:22:33.547Z,73.30
2019-02-08T06:25:37.767Z,73.20
2019-02-08T06:28:41.923Z,73.20
2019-02-08T06:31:46.137Z,73.30
2019-02-08T06:34:50.313Z,73.10
2019-02-08T06:37:54.542Z,72.90
2019-02-08T06:40:58.714Z,73.00
2019-02-08T06:44:02.844Z,72.80
2019-02-08T06:47:07.017Z,72.80
2019-02-08T06:50:12.472Z,72.90
2019-02-08T06:53:16.618Z,72.80
2019-02-08T06:56:38.560Z,72.80
2019-02-08T06:59:51.996Z,72.70
2019-02-08T07:03:19.874Z,72.70
2019-02-08T07:06:41.503Z,72.80
2019-02-08T07:10:05.636Z,72.70
2019-02-08T07:13:29.671Z,72.80
2019-02-08T07:16:51.312Z,72.80
2019-02-08T07:20:09.992Z,72.90
2019-02-08T07:23:31.815Z,73.00
2019-02-08T07:26:53.767Z,73.10
2019-02-08T07:30:07.629Z,73.10
2019-02-08T07:33:20.009Z,73.40
2019-02-08T07:36:40.917Z,73.20
2019-02-08T07:40:12.827Z,73.50
2019-02-08T07:43:22.063Z,73.10
2019-02-08T07:46:45.461Z,72.80
2019-02-08T07:49:56.787Z,72.80
2019-02-08T07:53:26.096Z,72.80
2019-02-08T07:57:07.420Z,72.90
2019-02-08T08:00:32.206Z,72.90
2019-02-08T08:04:01.000Z,74.50
2019-02-08T08:07:21.516Z,75.00
2019-02-08T08:10:33.836Z,75.20
2019-02-08T08:13:49.388Z,75.50
2019-02-08T08:17:27.910Z,75.50
2019-02-08T08:20:43.962Z,75.80
2019-02-08T08:24:13.025Z,75.90
2019-02-08T08:27:34.625Z,76.50
2019-02-08T08:30:50.753Z,76.50
2019-02-08T08:34:04.769Z,77.00
2019-02-08T08:38:03.522Z,77.60
2019-02-08T08:41:23.990Z,77.80
2019-02-08T08:45:03.870Z,77.90
2019-02-08T08:48:28.506Z,78.00
2019-02-08T08:52:38.431Z,77.90
2019-02-08T08:56:16.081Z,77.30
2019-02-08T08:59:29.754Z,77.00
2019-02-08T09:02:43.723Z,76.90
2019-02-08T09:06:10.180Z,77.60
2019-02-08T09:09:52.952Z,77.60
2019-02-08T09:13:33.264Z,77.00
2019-02-08T09:17:33.932Z,76.30
2019-02-08T09:21:20.966Z,75.90
2019-02-08T09:25:13.985Z,75.50
2019-02-08T09:28:49.267Z,75.60
2019-02-08T09:32:39.662Z,77.20
2019-02-08T09:36:20.761Z,77.50
2019-02-08T09:40:33.548Z,77.40
2019-02-08T09:44:20.858Z,77.20
2019-02-08T09:47:55.047Z,76.90
2019-02-08T09:51:23.833Z,77.60
2019-02-08T09:54:59.442Z,76.60
2019-02-08T09:59:02.956Z,76.60
2019-02-08T10:02:42.222Z,76.30
2019-02-08T10:06:26.801Z,76.40
2019-02-08T10:10:07.044Z,76.10
2019-02-08T10:13:43.077Z,76.10
2019-02-08T10:17:37.488Z,76.20
2019-02-08T10:21:12.416Z,75.30
2019-02-08T10:24:53.444Z,74.70
2019-02-08T10:28:50.848Z,74.80
2019-02-08T10:33:00.838Z,73.70
2019-02-08T10:36:48.238Z,72.80
2019-02-08T10:40:48.599Z,71.20
2019-02-08T10:44:35.700Z,71.10
2019-02-08T10:48:30.146Z,70.00
2019-02-08T10:52:11.220Z,69.50
2019-02-08T10:55:50.963Z,69.80
2019-02-08T10:59:35.104Z,68.70
2019-02-08T11:03:16.256Z,68.70
2019-02-08T11:06:57.359Z,67.80
2019-02-08T11:10:41.175Z,68.30
2019-02-08T11:14:20.161Z,67.70
2019-02-08T11:18:10.421Z,66.50
2019-02-08T11:21:14.628Z,66.70
2019-02-08T11:24:20.656Z,65.60
2019-02-08T11:27:24.868Z,66.20
2019-02-08T11:30:29.050Z,66.40
2019-02-08T11:33:33.269Z,66.60
2019-02-08T11:36:37.452Z,65.80
2019-02-08T11:39:41.771Z,66.30
2019-02-08T11:42:45.869Z,65.00
2019-02-08T11:45:50.064Z,64.90
2019-02-08T11:48:54.215Z,65.30
2019-02-08T11:51:58.364Z,65.00
2019-02-08T11:55:02.464Z,63.80
2019-02-08T11:58:07.398Z,63.00
2019-02-08T12:01:11.563Z,60.10
2019-02-08T12:04:15.723Z,59.80
2019-02-08T12:07:19.889Z,59.70
2019-02-08T12:10:24.265Z,59.40
2019-02-08T12:13:28.552Z,58.60
2019-02-08T12:16:32.713Z,59.20
2019-02-08T12:19:36.812Z,58.10
2019-02-08T12:22:41.149Z,56.90
2019-02-08T12:25:45.322Z,56.80
2019-02-08T12:28:49.744Z,57.60
2019-02-08T12:31:54.039Z,57.40
2019-02-08T12:34:58.255Z,56.90
2019-02-08T12:38:02.367Z,57.10
2019-02-08T12:41:09.819Z,57.10
2019-02-08T12:44:13.947Z,56.40
2019-02-08T12:47:19.926Z,55.40
2019-02-08T12:50:24.023Z,55.90
2019-02-08T12:53:28.236Z,55.70
2019-02-08T12:56:32.339Z,55.40
2019-02-08T12:59:36.527Z,55.40
2019-02-08T13:02:40.655Z,53.50
2019-02-08T13:05:44.898Z,52.50
2019-02-08T13:08:49.068Z,52.60
2019-02-08T13:11:53.301Z,52.00
2019-02-08T13:14:57.470Z,51.80
2019-02-08T13:18:01.673Z,52.30
2019-02-08T13:21:05.756Z,53.10
2019-02-08T13:24:09.890Z,52.30
2019-02-08T13:27:14.060Z,52.10
2019-02-08T13:30:23.712Z,52.10
2019-02-08T13:33:31.435Z,52.00
2019-02-08T13:36:35.625Z,51.50
2019-02-08T13:39:39.792Z,52.30
2019-02-08T13:42:44.048Z,52.50
2019-02-08T13:45:48.270Z,52.50
2019-02-08T13:48:52.449Z,52.70
2019-02-08T13:51:56.550Z,52.60
2019-02-08T13:55:00.761Z,52.20
2019-02-08T13:58:06.147Z,52.30
2019-02-08T14:01:10.477Z,53.60
2019-02-08T14:04:14.575Z,53.70
2019-02-08T14:07:18.689Z,53.60
2019-02-08T14:10:22.858Z,53.80
2019-02-08T14:13:27.053Z,54.20
2019-02-08T14:16:31.172Z,54.30
2019-02-08T14:19:35.344Z,53.40
2019-02-08T14:22:39.532Z,53.60
2019-02-08T14:25:43.660Z,52.50
2019-02-08T14:28:47.852Z,54.10
2019-02-08T14:31:53.076Z,53.70
2019-02-08T14:34:57.328Z,54.20
2019-02-08T14:38:01.948Z,54.50
2019-02-08T14:41:06.173Z,54.20
2019-02-08T14:44:10.737Z,54.70
2019-02-08T14:47:14.905Z,55.20
2019-02-08T14:50:21.421Z,55.00
2019-02-08T14:53:25.654Z,55.50
2019-02-08T14:56:30.892Z,56.10
2019-02-08T14:59:35.280Z,56.80
2019-02-08T15:02:39.862Z,57.30
2019-02-08T15:05:44.152Z,58.10
2019-02-08T15:08:48.488Z,58.30
2019-02-08T15:11:52.721Z,58.30
2019-02-08T15:14:57.134Z,58.80
2019-02-08T15:18:01.303Z,59.40
2019-02-08T15:21:05.564Z,60.30
2019-02-08T15:24:09.648Z,60.40
2019-02-08T15:27:13.775Z,61.00
2019-02-08T15:30:20.658Z,61.50
2019-02-08T15:33:24.809Z,61.80
2019-02-08T15:36:29.020Z,62.50
2019-02-08T15:39:33.154Z,63.60
2019-02-08T15:42:37.269Z,64.40
2019-02-08T15:45:43.081Z,64.40
2019-02-08T15:48:47.321Z,64.60
2019-02-08T15:51:51.592Z,65.00
2019-02-08T15:54:56.063Z,65.80
2019-02-08T15:58:00.300Z,66.30
2019-02-08T16:01:07.076Z,66.60
2019-02-08T16:04:11.361Z,66.50
2019-02-08T16:07:15.561Z,67.70
2019-02-08T16:10:19.705Z,67.50
2019-02-08T16:13:23.926Z,67.90
2019-02-08T16:16:28.627Z,68.60
2019-02-08T16:19:32.835Z,68.50
2019-02-08T16:22:37.401Z,69.90
2019-02-08T16:25:41.582Z,69.50
2019-02-08T16:28:45.841Z,70.20
2019-02-08T16:31:50.196Z,71.20
2019-02-08T16:34:54.427Z,72.30
2019-02-08T16:37:58.644Z,72.10
2019-02-08T16:41:02.852Z,71.80
2019-02-08T16:44:07.028Z,72.10
2019-02-08T16:47:11.533Z,72.00
2019-02-08T16:50:18.173Z,72.10
2019-02-08T16:53:22.316Z,72.70
2019-02-08T16:56:26.508Z,71.70
2019-02-08T16:59:30.644Z,71.00
2019-02-08T17:02:34.799Z,70.40
2019-02-08T17:05:38.933Z,70.00
2019-02-08T17:08:43.151Z,69.70
2019-02-08T17:11:47.652Z,69.20
2019-02-08T17:14:53.347Z,69.00
2019-02-08T17:17:57.575Z,69.10
2019-02-08T17:21:01.708Z,68.90
2019-02-08T17:24:05.933Z,68.90
2019-02-08T17:27:11.252Z,68.90
2019-02-08T17:30:16.471Z,68.90
2019-02-08T17:33:20.700Z,68.70
2019-02-08T17:36:25.043Z,68.70
2019-02-08T17:39:29.194Z,68.40
2019-02-08T17:42:33.415Z,68.50
2019-02-08T17:45:37.588Z,68.40
2019-02-08T17:48:41.947Z,68.40
2019-02-08T17:51:46.133Z,68.50
2019-02-08T17:54:50.434Z,68.50
2019-02-08T17:57:54.793Z,68.40
2019-02-08T18:01:01.285Z,68.60
2019-02-08T18:04:05.445Z,68.40
2019-02-08T18:07:09.683Z,68.30
2019-02-08T18:10:17.661Z,68.30
2019-02-08T18:13:21.813Z,68.40
2019-02-08T18:16:26.053Z,68.30
2019-02-08T18:19:30.315Z,68.20
2019-02-08T18:22:34.448Z,68.10
2019-02-08T18:25:38.596Z,68.20
2019-02-08T18:28:42.765Z,68.20
2019-02-08T18:31:47.090Z,68.40
2019-02-08T18:34:51.375Z,68.30
2019-02-08T18:37:55.608Z,68.30
2019-02-08T18:40:59.781Z,68.20
2019-02-08T18:44:04.009Z,68.40
2019-02-08T18:47:08.850Z,68.40
2019-02-08T18:50:16.657Z,68.50
2019-02-08T18:53:21.001Z,68.70
2019-02-08T18:56:25.368Z,68.60
2019-02-08T18:59:30.917Z,68.60
2019-02-08T19:02:35.481Z,68.60
2019-02-08T19:05:42.415Z,68.70
2019-02-08T19:08:46.922Z,68.40
2019-02-08T19:11:51.273Z,68.40
2019-02-08T19:14:55.545Z,68.30
2019-02-08T19:18:02.180Z,68.30
2019-02-08T19:21:06.396Z,68.30
2019-02-08T19:24:10.992Z,68.40
2019-02-08T19:27:15.215Z,68.20
2019-02-08T19:30:21.729Z,68.40
2019-02-08T19:33:25.954Z,68.20
2019-02-08T19:36:30.200Z,68.30
2019-02-08T19:39:34.554Z,68.40
2019-02-08T19:42:38.768Z,68.10
2019-02-08T19:45:43.036Z,68.30
2019-02-08T19:48:47.228Z,68.30
2019-02-08T19:51:51.501Z,68.30
2019-02-08T19:54:55.747Z,69.20
2019-02-08T19:57:59.959Z,68.40
2019-02-08T20:01:04.140Z,68.30
2019-02-08T20:04:08.484Z,68.30
2019-02-08T20:07:12.942Z,68.20
2019-02-08T20:10:22.273Z,68.20
2019-02-08T20:13:27.283Z,68.50
2019-02-08T20:16:31.542Z,68.30
2019-02-08T20:19:35.850Z,68.90
2019-02-08T20:22:40.097Z,68.30
2019-02-08T20:25:44.393Z,68.20
2019-02-08T20:28:48.628Z,68.40
2019-02-08T20:31:52.810Z,68.40
2019-02-08T20:34:57.175Z,68.40
2019-02-08T20:38:01.516Z,68.50
2019-02-08T20:41:05.764Z,68.50
2019-02-08T20:44:09.993Z,68.60
2019-02-08T20:47:14.370Z,68.50
2019-02-08T20:50:18.841Z,67.60
2019-02-08T20:53:23.132Z,68.10
2019-02-08T20:56:27.370Z,68.20
2019-02-08T20:59:32.297Z,68.10
2019-02-08T21:02:37.187Z,68.10
2019-02-08T21:05:42.596Z,68.20
2019-02-08T21:08:46.803Z,68.10
2019-02-08T21:11:51.459Z,68.20
2019-02-08T21:14:55.665Z,68.30
2019-02-08T21:17:59.907Z,68.30
2019-02-08T21:21:05.394Z,68.20
2019-02-08T21:24:09.660Z,68.30
2019-02-08T21:27:14.368Z,68.20
2019-02-08T21:30:18.592Z,68.10
2019-02-08T21:33:22.765Z,68.10
2019-02-08T21:36:27.029Z,68.10
2019-02-08T21:39:31.378Z,68.10
2019-02-08T21:42:35.709Z,68.20
2019-02-08T21:45:41.636Z,68.10
2019-02-08T21:48:46.478Z,68.00
2019-02-08T21:51:50.671Z,68.10
2019-02-08T21:54:54.952Z,68.00
2019-02-08T21:57:59.252Z,68.10
2019-02-08T22:01:03.424Z,67.90
2019-02-08T22:04:07.548Z,68.10
2019-02-08T22:07:11.718Z,68.10
2019-02-08T22:10:15.999Z,68.10
2019-02-08T22:13:20.453Z,67.90
2019-02-08T22:16:25.165Z,68.10
2019-02-08T22:19:29.386Z,68.10
2019-02-08T22:22:33.820Z,68.10
2019-02-08T22:25:38.246Z,68.10
2019-02-08T22:28:42.353Z,68.30
2019-02-08T22:31:46.803Z,68.10
2019-02-08T22:34:50.916Z,68.10
2019-02-08T22:37:55.082Z,68.10
2019-02-08T22:40:59.598Z,68.00
2019-02-08T22:44:04.115Z,68.10
2019-02-08T22:47:08.278Z,68.00
2019-02-08T22:50:13.053Z,67.10
2019-02-08T22:53:17.194Z,67.80
2019-02-08T22:56:21.528Z,67.80
2019-02-08T22:59:25.701Z,68.00
2019-02-08T23:02:29.952Z,67.80
2019-02-08T23:05:34.057Z,67.80
2019-02-08T23:08:38.216Z,67.60
2019-02-08T23:11:42.394Z,67.80
2019-02-08T23:14:46.532Z,67.80
2019-02-08T23:17:50.659Z,67.60
2019-02-08T23:20:54.911Z,67.70
2019-02-08T23:23:59.200Z,67.60
2019-02-08T23:27:04.036Z,67.60
2019-02-08T23:30:09.239Z,67.70
2019-02-08T23:33:13.433Z,67.80
2019-02-08T23:36:17.608Z,67.70
2019-02-08T23:39:21.873Z,67.70
2019-02-08T23:42:26.038Z,67.70
2019-02-08T23:45:30.247Z,67.80
2019-02-08T23:48:34.376Z,67.80
2019-02-08T23:51:38.513Z,67.80
2019-02-08T23:54:42.706Z,67.70
2019-02-08T23:57:46.913Z,68.10
